Time;durP1;ratioP1;P1;durP2;ratioP2;P2;SDS_P1;SDS_P2;PMS_P1;PMS_P2;Temp;Humidity;BMP_temperature;BMP_pressure;BME280_temperature;BME280_humidity;BME280_pressure;Samples;Min_cycle;Max_cycle;Signal;HPM_P1;HPM_P2
2022/06/03 00:02:12;;;;;;;20.98;10.10;;;;;;;;;;6220811;28;20029;-59
2022/06/03 00:05:31;;;;;;;21.40;10.55;;;;;;;;;;6215159;28;20061;-59
2022/06/03 00:09:03;;;;;;;21.35;11.15;;;;;;;;;;6225396;28;20386;-59
2022/06/03 00:12:19;;;;;;;18.20;10.38;;;;;;;;;;6229819;28;20046;-59
2022/06/03 00:16:16;;;;;;;21.08;10.77;;;;;;;;;;6233119;28;20657;-59
2022/06/03 00:19:38;;;;;;;21.55;10.63;;;;;;;;;;6175571;28;20409;-59
2022/06/03 00:22:57;;;;;;;23.95;12.10;;;;;;;;;;6231914;28;20084;-59
2022/06/03 00:26:13;;;;;;;16.55;10.27;;;;;;;;;;6221531;28;20060;-59
2022/06/03 00:29:44;;;;;;;18.27;10.55;;;;;;;;;;6218230;28;20050;-59
2022/06/03 00:33:09;;;;;;;16.95;9.70;;;;;;;;;;6230119;28;20572;-58
2022/06/03 00:36:19;;;;;;;22.00;10.38;;;;;;;;;;6233775;28;20042;-59
2022/06/03 00:39:30;;;;;;;17.83;11.02;;;;;;;;;;6236884;28;20531;-58
2022/06/03 00:42:45;;;;;;;19.83;10.43;;;;;;;;;;6223304;28;20496;-59
2022/06/03 00:46:18;;;;;;;16.30;9.68;;;;;;;;;;6241224;28;20072;-60
2022/06/03 00:49:36;;;;;;;16.73;10.07;;;;;;;;;;6228844;28;20049;-60
2022/06/03 00:52:53;;;;;;;17.80;9.70;;;;;;;;;;6223895;28;20049;-60
2022/06/03 00:56:22;;;;;;;18.98;9.80;;;;;;;;;;6238132;28;20886;-60
2022/06/03 00:59:43;;;;;;;13.52;8.82;;;;;;;;;;6226526;28;20613;-57
2022/06/03 01:02:43;;;;;;;15.85;9.15;;;;;;;;;;6217993;28;20461;-59
2022/06/03 01:06:08;;;;;;;14.32;8.80;;;;;;;;;;6224329;28;20137;-59
2022/06/03 01:09:11;;;;;;;19.50;9.43;;;;;;;;;;6218679;28;20812;-60
2022/06/03 01:12:12;;;;;;;14.90;8.95;;;;;;;;;;6217212;28;20704;-59
2022/06/03 01:15:21;;;;;;;15.95;8.73;;;;;;;;;;6223250;28;20037;-60
2022/06/03 01:18:47;;;;;;;16.55;9.45;;;;;;;;;;6222509;28;21021;-60
2022/06/03 01:22:25;;;;;;;15.82;9.30;;;;;;;;;;6220237;28;20048;-60
2022/06/03 01:25:58;;;;;;;18.27;9.65;;;;;;;;;;6218102;28;20069;-58
2022/06/03 01:29:01;;;;;;;;;;;;;;;;;;6208228;28;20165;-59
2022/06/03 01:32:27;;;;;;;19.00;9.63;;;;;;;;;;6219521;28;20954;-59
2022/06/03 01:35:55;;;;;;;16.10;9.13;;;;;;;;;;6218229;28;20038;-59
2022/06/03 01:39:22;;;;;;;14.63;9.30;;;;;;;;;;6225180;28;20059;-58
2022/06/03 01:42:36;;;;;;;15.07;9.10;;;;;;;;;;6218675;28;20083;-60
2022/06/03 01:46:15;;;;;;;19.10;9.45;;;;;;;;;;6218013;28;20042;-60
2022/06/03 01:49:50;;;;;;;15.40;9.27;;;;;;;;;;6220144;28;20057;-59
2022/06/03 01:53:10;;;;;;;15.70;8.70;;;;;;;;;;6188057;28;20632;-57
2022/06/03 01:56:19;;;;;;;15.90;8.90;;;;;;;;;;6218859;28;20626;-59
2022/06/03 01:59:32;;;;;;;21.27;10.60;;;;;;;;;;6218167;28;20712;-60
2022/06/03 02:03:08;;;;;;;16.08;9.63;;;;;;;;;;6218251;28;20042;-59
2022/06/03 02:06:28;;;;;;;18.30;8.93;;;;;;;;;;6221553;28;20781;-58
2022/06/03 02:09:53;;;;;;;15.13;9.52;;;;;;;;;;6228348;28;20069;-59
2022/06/03 02:13:15;;;;;;;16.63;9.57;;;;;;;;;;6223162;28;20077;-60
2022/06/03 02:16:27;;;;;;;17.73;9.55;;;;;;;;;;6222791;28;20401;-60
2022/06/03 02:19:49;;;;;;;18.98;10.15;;;;;;;;;;6227694;28;20145;-60
2022/06/03 02:22:59;;;;;;;20.52;10.48;;;;;;;;;;6231435;28;20065;-58
2022/06/03 02:26:23;;;;;;;19.65;10.85;;;;;;;;;;6232832;28;20081;-59
2022/06/03 02:33:18;;;;;;;15.52;9.27;;;;;;;;;;6223846;28;20034;-59
2022/06/03 02:36:56;;;;;;;17.23;10.07;;;;;;;;;;6227655;28;20037;-59
2022/06/03 02:40:36;;;;;;;19.13;9.63;;;;;;;;;;6231122;28;20501;-59
2022/06/03 02:44:17;;;;;;;18.77;8.80;;;;;;;;;;6225669;28;20038;-58
2022/06/03 02:47:59;;;;;;;15.15;9.30;;;;;;;;;;6234375;28;20069;-59
2022/06/03 02:51:18;;;;;;;16.92;10.25;;;;;;;;;;6216199;28;20540;-59
2022/06/03 02:54:56;;;;;;;18.63;9.80;;;;;;;;;;6224527;28;20050;-59
2022/06/03 02:58:30;;;;;;;17.63;9.93;;;;;;;;;;6225839;28;20034;-59
2022/06/03 03:02:01;;;;;;;19.45;11.38;;;;;;;;;;6231614;28;20080;-58
2022/06/03 03:05:26;;;;;;;19.42;9.98;;;;;;;;;;6239102;28;20503;-60
2022/06/03 03:08:57;;;;;;;18.90;10.00;;;;;;;;;;6234709;28;20104;-60
2022/06/03 03:12:03;;;;;;;16.48;9.65;;;;;;;;;;6232605;28;20046;-59
2022/06/03 03:15:45;;;;;;;18.58;9.90;;;;;;;;;;6238007;28;20045;-59
2022/06/03 03:18:58;;;;;;;17.15;9.82;;;;;;;;;;6213635;28;20408;-59
2022/06/03 03:22:23;;;;;;;17.13;9.50;;;;;;;;;;6229054;28;20046;-59
2022/06/03 03:25:39;;;;;;;18.08;9.82;;;;;;;;;;6220386;28;20049;-59
2022/06/03 03:29:07;;;;;;;16.27;9.52;;;;;;;;;;6228141;28;20073;-58
2022/06/03 03:32:13;;;;;;;18.67;9.07;;;;;;;;;;6234317;28;20132;-59
2022/06/03 03:35:21;;;;;;;21.58;10.20;;;;;;;;;;6220359;28;20042;-59
2022/06/03 03:38:43;;;;;;;20.98;9.93;;;;;;;;;;6221726;28;20405;-60
2022/06/03 03:41:50;;;;;;;17.23;8.98;;;;;;;;;;6231607;28;20084;-61
2022/06/03 03:44:56;;;;;;;19.02;9.60;;;;;;;;;;6226195;28;20056;-60
2022/06/03 03:48:35;;;;;;;15.65;9.25;;;;;;;;;;6229426;28;20049;-60
2022/06/03 03:51:52;;;;;;;17.80;9.60;;;;;;;;;;6224222;28;20041;-59
2022/06/03 03:55:17;;;;;;;18.35;8.60;;;;;;;;;;6222506;28;20042;-59
2022/06/03 03:58:39;;;;;;;15.30;8.90;;;;;;;;;;6219775;28;20049;-60
2022/06/03 04:02:14;;;;;;;15.55;8.95;;;;;;;;;;6226629;28;20089;-58
2022/06/03 04:05:31;;;;;;;19.15;8.65;;;;;;;;;;6220977;28;20500;-58
2022/06/03 04:08:32;;;;;;;13.35;8.27;;;;;;;;;;6227916;28;20144;-58
2022/06/03 04:12:02;;;;;;;17.23;9.38;;;;;;;;;;6224926;28;20079;-58
2022/06/03 04:15:27;;;;;;;16.17;9.38;;;;;;;;;;6220887;28;20049;-61
2022/06/03 04:18:40;;;;;;;18.85;9.30;;;;;;;;;;6234754;28;20056;-59
2022/06/03 04:21:59;;;;;;;14.40;8.88;;;;;;;;;;6220172;28;20057;-61
2022/06/03 04:25:28;;;;;;;14.50;9.32;;;;;;;;;;6222181;28;20072;-60
2022/06/03 04:28:53;;;;;;;14.65;8.25;;;;;;;;;;6228795;28;20107;-60
2022/06/03 04:32:44;;;;;;;17.45;8.80;;;;;;;;;;6225292;28;20061;-60
2022/06/03 04:36:05;;;;;;;15.88;8.52;;;;;;;;;;6237155;28;20049;-59
2022/06/03 04:39:30;;;;;;;13.32;8.50;;;;;;;;;;6240669;28;20056;-60
2022/06/03 04:43:01;;;;;;;15.10;8.48;;;;;;;;;;6233459;28;20049;-60
2022/06/03 04:46:24;;;;;;;15.30;8.82;;;;;;;;;;6233276;28;20049;-61
2022/06/03 04:49:45;;;;;;;16.17;8.95;;;;;;;;;;6227316;28;20522;-60
2022/06/03 04:53:17;;;;;;;18.35;9.55;;;;;;;;;;6229655;28;20048;-60
2022/06/03 04:56:49;;;;;;;15.30;8.82;;;;;;;;;;6230917;28;20620;-60
2022/06/03 05:00:22;;;;;;;13.57;7.43;;;;;;;;;;6219676;28;20053;-59
2022/06/03 05:04:07;;;;;;;12.93;7.78;;;;;;;;;;6236655;28;20065;-59
2022/06/03 05:07:33;;;;;;;16.58;7.85;;;;;;;;;;6234194;28;20053;-61
2022/06/03 05:10:52;;;;;;;15.75;8.18;;;;;;;;;;6235212;28;20667;-60
2022/06/03 05:14:01;;;;;;;17.67;9.82;;;;;;;;;;6219378;28;20065;-61
2022/06/03 05:17:20;;;;;;;15.57;8.15;;;;;;;;;;6223910;28;20048;-60
2022/06/03 05:20:53;;;;;;;16.15;8.48;;;;;;;;;;6224442;28;20057;-60
2022/06/03 05:24:13;;;;;;;20.45;8.98;;;;;;;;;;6216734;28;20100;-60
2022/06/03 05:27:48;;;;;;;16.00;7.97;;;;;;;;;;6219314;28;20073;-60
2022/06/03 05:31:11;;;;;;;21.20;8.68;;;;;;;;;;6225159;28;20038;-60
2022/06/03 05:34:12;;;;;;;;;;;;;;;;;;6235618;28;20040;-61
2022/06/03 05:37:28;;;;;;;13.88;7.43;;;;;;;;;;6230156;28;20483;-61
2022/06/03 05:40:51;;;;;;;17.77;8.20;;;;;;;;;;6225908;28;20504;-61
2022/06/03 05:44:10;;;;;;;16.15;8.23;;;;;;;;;;6215439;28;20453;-61
2022/06/03 05:47:19;;;;;;;14.07;7.53;;;;;;;;;;6246270;28;20142;-61
2022/06/03 05:50:46;;;;;;;17.13;7.65;;;;;;;;;;6219511;28;20084;-60
2022/06/03 05:54:12;;;;;;;15.13;7.32;;;;;;;;;;6243578;28;20427;-61
2022/06/03 05:57:38;;;;;;;14.40;7.57;;;;;;;;;;6227494;28;20120;-61
2022/06/03 06:00:55;;;;;;;18.10;7.78;;;;;;;;;;6222802;28;20392;-61
2022/06/03 06:04:12;;;;;;;10.93;6.28;;;;;;;;;;6230258;28;20501;-61
2022/06/03 06:07:41;;;;;;;13.07;6.18;;;;;;;;;;6246939;28;20568;-61
2022/06/03 06:11:05;;;;;;;9.82;6.03;;;;;;;;;;6220253;28;20440;-60
2022/06/03 06:14:38;;;;;;;10.70;5.93;;;;;;;;;;6224400;28;20087;-60
2022/06/03 06:17:59;;;;;;;11.00;5.68;;;;;;;;;;6242839;28;20046;-60
2022/06/03 06:21:27;;;;;;;11.85;5.80;;;;;;;;;;6230163;28;20058;-59
2022/06/03 06:24:34;;;;;;;15.57;5.72;;;;;;;;;;6224890;28;20578;-60
2022/06/03 06:28:24;;;;;;;12.82;5.32;;;;;;;;;;6226289;28;20053;-58
2022/06/03 06:31:50;;;;;;;9.63;5.03;;;;;;;;;;6217989;28;20127;-61
2022/06/03 06:35:29;;;;;;;12.00;5.32;;;;;;;;;;6218683;28;20571;-59
2022/06/03 06:38:49;;;;;;;7.97;4.85;;;;;;;;;;6229722;28;20054;-60
2022/06/03 06:42:16;;;;;;;9.05;5.53;;;;;;;;;;6228182;28;20046;-61
2022/06/03 06:45:29;;;;;;;9.85;5.13;;;;;;;;;;6230765;28;20080;-60
2022/06/03 06:48:47;;;;;;;11.43;5.80;;;;;;;;;;6228706;28;20050;-61
2022/06/03 06:52:03;;;;;;;6.90;4.93;;;;;;;;;;6228281;28;20069;-61
2022/06/03 06:55:41;;;;;;;8.30;5.00;;;;;;;;;;6232504;28;20048;-62
2022/06/03 06:58:45;;;;;;;8.95;5.10;;;;;;;;;;6228501;28;20049;-60
2022/06/03 07:01:58;;;;;;;11.20;5.22;;;;;;;;;;6231015;28;20512;-61
2022/06/03 07:05:05;;;;;;;9.68;5.13;;;;;;;;;;6234966;28;20159;-60
2022/06/03 07:08:09;;;;;;;11.45;5.03;;;;;;;;;;6231775;28;20508;-61
2022/06/03 07:11:22;;;;;;;5.80;4.63;;;;;;;;;;6227049;28;20069;-60
2022/06/03 07:21:55;;;;;;;9.88;5.38;;;;;;;;;;6140362;29;20220;-58
2022/06/03 07:24:59;;;;;;;9.90;5.18;;;;;;;;;;6150305;28;20091;-58
2022/06/03 07:28:14;;;;;;;9.90;5.20;;;;;;;;;;6219498;28;20511;-60
2022/06/03 07:31:32;;;;;;;8.15;4.95;;;;;;;;;;6221278;28;20105;-59
2022/06/03 07:34:44;;;;;;;6.30;4.55;;;;;;;;;;6206505;28;20393;-59
2022/06/03 07:37:52;;;;;;;7.07;4.60;;;;;;;;;;6219254;28;20034;-59
2022/06/03 07:41:01;;;;;;;7.25;4.30;;;;;;;;;;6220069;28;20127;-59
2022/06/03 07:44:23;;;;;;;7.20;4.38;;;;;;;;;;6220493;28;20048;-59
2022/06/03 07:47:28;;;;;;;6.55;4.47;;;;;;;;;;6217673;28;20077;-59
2022/06/03 07:50:33;;;;;;;7.20;4.72;;;;;;;;;;6216335;28;20054;-59
2022/06/03 07:53:45;;;;;;;10.43;4.43;;;;;;;;;;6220086;28;20053;-59
2022/06/03 07:56:46;;;;;;;7.47;4.75;;;;;;;;;;6220424;28;20049;-59
2022/06/03 07:59:47;;;;;;;6.57;4.77;;;;;;;;;;6218661;28;20050;-57
2022/06/03 08:03:20;;;;;;;7.87;4.90;;;;;;;;;;6216337;28;20096;-59
2022/06/03 08:10:56;;;;;;;9.25;5.60;;;;;;;;;;6212993;28;20115;-59
2022/06/03 08:13:11;;;;;;;8.23;5.32;;;;;;;;;;6197241;28;20074;-59
2022/06/03 08:16:35;;;;;;;8.13;4.70;;;;;;;;;;6215226;28;20061;-59
2022/06/03 08:19:37;;;;;;;8.75;5.20;;;;;;;;;;6165463;28;20631;-59
2022/06/03 08:22:38;;;;;;;6.72;4.88;;;;;;;;;;6151968;28;20047;-59
2022/06/03 08:25:42;;;;;;;6.83;5.10;;;;;;;;;;6169424;28;20039;-58
2022/06/03 08:28:48;;;;;;;7.65;4.90;;;;;;;;;;6169700;28;20063;-59
2022/06/03 08:31:50;;;;;;;8.90;5.05;;;;;;;;;;6168825;28;20051;-59
2022/06/03 08:34:51;;;;;;;;;;;;;;;;;;6164084;28;20392;-63
2022/06/03 08:41:33;;;;;;;8.45;5.95;;;;;;;;;;6307820;23;20065;-64
2022/06/03 08:45:01;;;;;;;11.02;6.80;;;;;;;;;;6215455;28;20042;-63
2022/06/03 08:48:17;;;;;;;15.93;9.40;;;;;;;;;;6208407;28;20057;-61
2022/06/03 08:51:23;;;;;;;94.78;30.75;;;;;;;;;;6218804;28;20056;-60
2022/06/03 08:54:35;;;;;;;27.17;12.00;;;;;;;;;;6218859;28;20050;-63
2022/06/03 08:57:49;;;;;;;19.42;7.70;;;;;;;;;;6218142;28;20046;-66
2022/06/03 09:00:55;;;;;;;12.07;6.78;;;;;;;;;;6218953;28;20046;-61
2022/06/03 09:04:19;;;;;;;25.77;11.27;;;;;;;;;;6216515;28;20080;-67
2022/06/03 09:07:48;;;;;;;12.68;5.80;;;;;;;;;;6207354;28;20066;-62
2022/06/03 09:10:59;;;;;;;6.00;4.20;;;;;;;;;;6187099;28;20049;-69
2022/06/03 09:14:05;;;;;;;7.45;4.50;;;;;;;;;;6212687;28;20480;-61
2022/06/03 09:17:27;;;;;;;7.20;4.65;;;;;;;;;;6207263;28;20053;-62
2022/06/03 09:20:49;;;;;;;;;;;;;;;;;;6211881;28;20050;-61
2022/06/03 09:24:05;;;;;;;8.35;4.90;;;;;;;;;;6214763;28;19976;-60
2022/06/03 09:27:08;;;;;;;7.03;5.35;;;;;;;;;;6226846;28;20054;-61
2022/06/03 09:30:12;;;;;;;7.32;5.15;;;;;;;;;;6217486;28;20070;-64
2022/06/03 09:33:16;;;;;;;8.75;5.65;;;;;;;;;;6217658;28;20050;-61
2022/06/03 09:36:18;;;;;;;8.18;5.32;;;;;;;;;;6213891;28;20050;-60
2022/06/03 09:39:19;;;;;;;8.60;5.10;;;;;;;;;;6207969;28;20041;-60
2022/06/03 09:42:22;;;;;;;8.27;5.00;;;;;;;;;;6216286;28;20488;-61
2022/06/03 09:45:24;;;;;;;6.85;4.95;;;;;;;;;;6216713;28;20096;-60
2022/06/03 09:48:32;;;;;;;6.00;4.15;;;;;;;;;;6214206;28;20572;-61
2022/06/03 09:51:58;;;;;;;6.70;4.15;;;;;;;;;;6216512;28;20521;-61
2022/06/03 09:55:05;;;;;;;5.07;4.03;;;;;;;;;;6215964;28;20046;-60
2022/06/03 09:58:09;;;;;;;6.22;4.25;;;;;;;;;;6215078;28;20073;-61
2022/06/03 10:01:10;;;;;;;6.25;4.25;;;;;;;;;;6217297;28;20054;-62
2022/06/03 10:04:12;;;;;;;5.90;3.60;;;;;;;;;;6216840;28;20141;-63
2022/06/03 10:07:12;;;;;;;5.07;3.25;;;;;;;;;;6216715;28;20093;-61
2022/06/03 10:13:39;;;;;;;6.32;4.40;;;;;;;;;;6209988;28;20492;-61
2022/06/03 10:16:39;;;;;;;6.35;4.10;;;;;;;;;;6217146;28;20097;-61
2022/06/03 10:19:40;;;;;;;7.00;4.27;;;;;;;;;;6209684;28;20077;-61
2022/06/03 10:22:44;;;;;;;6.57;5.00;;;;;;;;;;6204387;28;20499;-61
2022/06/03 10:25:46;;;;;;;7.72;4.45;;;;;;;;;;6216390;28;20045;-61
2022/06/03 10:28:50;;;;;;;6.22;4.18;;;;;;;;;;6220295;28;20133;-64
2022/06/03 10:32:02;;;;;;;7.60;4.78;;;;;;;;;;6220916;28;20711;-61
2022/06/03 10:35:16;;;;;;;6.90;4.50;;;;;;;;;;6207859;28;20054;-61
2022/06/03 10:38:20;;;;;;;7.93;3.95;;;;;;;;;;6208462;28;20124;-61
2022/06/03 10:41:34;;;;;;;6.78;4.50;;;;;;;;;;6219269;28;20112;-62
2022/06/03 10:44:36;;;;;;;6.50;4.28;;;;;;;;;;6220877;28;20459;-61
2022/06/03 10:47:39;;;;;;;6.95;4.60;;;;;;;;;;6216244;28;20066;-61
2022/06/03 10:50:40;;;;;;;8.90;4.32;;;;;;;;;;6207615;28;20053;-61
2022/06/03 11:03:54;;;;;;;7.75;4.60;;;;;;;;;;6220667;28;20042;-61
2022/06/03 11:06:58;;;;;;;6.60;4.47;;;;;;;;;;6219243;28;20069;-62
2022/06/03 11:10:03;;;;;;;6.38;4.50;;;;;;;;;;6217054;28;20050;-61
2022/06/03 11:13:07;;;;;;;7.75;5.22;;;;;;;;;;6213017;28;20061;-62
2022/06/03 11:16:20;;;;;;;10.35;5.05;;;;;;;;;;6220308;28;20065;-63
2022/06/03 11:19:21;;;;;;;7.60;5.10;;;;;;;;;;6208404;28;20501;-62
2022/06/03 11:22:29;;;;;;;9.60;6.18;;;;;;;;;;6220195;28;20057;-61
2022/06/03 11:25:31;;;;;;;8.15;5.45;;;;;;;;;;6215839;28;20046;-61
2022/06/03 11:28:39;;;;;;;8.82;5.55;;;;;;;;;;6209572;28;20492;-61
2022/06/03 11:31:46;;;;;;;7.65;5.03;;;;;;;;;;6210221;28;20048;-61
2022/06/03 11:34:54;;;;;;;8.70;4.85;;;;;;;;;;6212731;28;20069;-61
2022/06/03 11:38:00;;;;;;;8.50;5.15;;;;;;;;;;6212079;28;20081;-62
2022/06/03 11:41:07;;;;;;;9.98;4.97;;;;;;;;;;6212069;28;20135;-62
2022/06/03 11:44:14;;;;;;;8.45;5.10;;;;;;;;;;6218965;28;20053;-61
2022/06/03 11:47:41;;;;;;;6.72;4.95;;;;;;;;;;6218195;28;20050;-62
2022/06/03 11:50:42;;;;;;;5.65;4.63;;;;;;;;;;6211533;28;20049;-61
2022/06/03 11:53:47;;;;;;;6.63;4.95;;;;;;;;;;6220769;28;20045;-61
2022/06/03 11:56:49;;;;;;;8.02;4.97;;;;;;;;;;6215489;28;20495;-61
2022/06/03 11:59:59;;;;;;;9.18;4.80;;;;;;;;;;6215599;28;20054;-61
2022/06/03 12:02:59;;;;;;;7.95;5.10;;;;;;;;;;6216819;28;20053;-61
2022/06/03 12:06:17;;;;;;;8.00;5.17;;;;;;;;;;6216284;28;20050;-61
2022/06/03 12:09:35;;;;;;;7.60;5.22;;;;;;;;;;6219412;28;20042;-60
2022/06/03 12:16:21;;;;;;;7.00;5.20;;;;;;;;;;6184016;28;20042;-61
2022/06/03 12:19:39;;;;;;;8.65;4.50;;;;;;;;;;6208535;28;20077;-61
2022/06/03 12:22:41;;;;;;;7.60;4.80;;;;;;;;;;6204407;28;20137;-61
2022/06/03 12:25:54;;;;;;;6.00;4.28;;;;;;;;;;6208999;28;20057;-61
2022/06/03 12:29:09;;;;;;;7.18;4.40;;;;;;;;;;6209941;28;20416;-61
2022/06/03 12:32:25;;;;;;;7.78;4.13;;;;;;;;;;6215163;28;20508;-61
2022/06/03 12:36:04;;;;;;;6.30;3.72;;;;;;;;;;6220496;28;20056;-61
2022/06/03 12:39:05;;;;;;;6.55;3.55;;;;;;;;;;6163846;28;20386;-62
2022/06/03 12:42:12;;;;;;;6.40;3.43;;;;;;;;;;6195523;28;20153;-62
2022/06/03 12:45:32;;;;;;;7.28;4.03;;;;;;;;;;6206559;28;20116;-61
2022/06/03 12:48:45;;;;;;;5.63;4.00;;;;;;;;;;6200721;28;20050;-61
2022/06/03 12:52:05;;;;;;;4.47;3.53;;;;;;;;;;6200939;28;20144;-62
2022/06/03 12:55:14;;;;;;;8.07;3.95;;;;;;;;;;6199972;28;20053;-58
2022/06/03 12:58:39;;;;;;;6.22;3.63;;;;;;;;;;6201810;28;20062;-61
2022/06/03 13:02:08;;;;;;;4.90;3.70;;;;;;;;;;6206611;28;20148;-61
2022/06/03 13:05:25;;;;;;;5.25;3.22;;;;;;;;;;6207115;28;20053;-61
2022/06/03 13:08:26;;;;;;;4.95;3.72;;;;;;;;;;6204836;28;20050;-60
2022/06/03 13:11:28;;;;;;;4.73;3.77;;;;;;;;;;6208094;28;20485;-61
2022/06/03 13:14:31;;;;;;;5.97;3.00;;;;;;;;;;6206650;28;20058;-61
2022/06/03 13:18:02;;;;;;;6.38;3.88;;;;;;;;;;6206783;28;20057;-61
2022/06/03 13:21:03;;;;;;;7.13;3.83;;;;;;;;;;6207912;28;20817;-61
2022/06/03 13:24:23;;;;;;;5.27;3.50;;;;;;;;;;6206946;28;20050;-61
2022/06/03 13:27:24;;;;;;;7.60;3.50;;;;;;;;;;6208155;28;20054;-61
2022/06/03 13:30:37;;;;;;;5.55;3.40;;;;;;;;;;6206922;28;20590;-61
2022/06/03 13:34:07;;;;;;;7.13;3.70;;;;;;;;;;6207641;28;20049;-61
2022/06/03 13:37:45;;;;;;;5.80;3.50;;;;;;;;;;6205918;28;20129;-60
2022/06/03 13:42:57;;;;;;;6.40;3.60;;;;;;;;;;6208098;28;20605;-60
2022/06/03 13:44:19;;;;;;;4.93;3.45;;;;;;;;;;6206651;28;20161;-61
2022/06/03 13:47:19;;;;;;;6.60;3.55;;;;;;;;;;6206478;28;20496;-60
2022/06/03 13:50:26;;;;;;;10.17;3.97;;;;;;;;;;6207871;28;20054;-61
2022/06/03 13:53:31;;;;;;;5.63;4.28;;;;;;;;;;6204839;28;20130;-62
2022/06/03 13:56:32;;;;;;;6.93;3.85;;;;;;;;;;6201079;28;20471;-61
2022/06/03 13:59:37;;;;;;;;;;;;;;;;;;6201837;28;20076;-60
2022/06/03 14:02:40;;;;;;;7.18;4.18;;;;;;;;;;6200326;28;20678;-60
2022/06/03 14:05:56;;;;;;;5.45;3.80;;;;;;;;;;6201433;28;20417;-61
2022/06/03 14:09:06;;;;;;;5.53;3.58;;;;;;;;;;6207191;28;20100;-60
2022/06/03 14:12:07;;;;;;;6.50;3.80;;;;;;;;;;6206035;28;20089;-61
2022/06/03 14:15:24;;;;;;;4.63;3.60;;;;;;;;;;6204099;28;20720;-60
2022/06/03 14:19:09;;;;;;;7.40;3.70;;;;;;;;;;6207604;28;20137;-61
2022/06/03 14:22:35;;;;;;;5.88;3.92;;;;;;;;;;6130780;29;20674;-61
2022/06/03 14:25:48;;;;;;;5.50;3.92;;;;;;;;;;6129049;28;20145;-61
2022/06/03 14:29:00;;;;;;;5.82;3.78;;;;;;;;;;6207811;28;20058;-61
2022/06/03 14:32:08;;;;;;;6.68;3.92;;;;;;;;;;6205732;28;20075;-61
2022/06/03 14:35:15;;;;;;;6.35;4.28;;;;;;;;;;6201320;28;20100;-61
2022/06/03 14:38:33;;;;;;;5.10;3.78;;;;;;;;;;6206079;28;20054;-62
2022/06/03 14:41:38;;;;;;;5.90;4.30;;;;;;;;;;6205810;28;20057;-60
2022/06/03 14:44:43;;;;;;;5.70;4.00;;;;;;;;;;6205630;28;20623;-61
2022/06/03 14:47:55;;;;;;;10.32;5.22;;;;;;;;;;6207111;28;20078;-61
2022/06/03 14:50:58;;;;;;;;;;;;;;;;;;6204809;28;20061;-61
2022/06/03 14:54:03;;;;;;;5.25;3.92;;;;;;;;;;6205025;28;20407;-62
2022/06/03 14:57:07;;;;;;;6.20;4.07;;;;;;;;;;6204003;28;20073;-62
2022/06/03 15:00:12;;;;;;;5.78;4.40;;;;;;;;;;6207004;28;20145;-62
2022/06/03 15:03:26;;;;;;;7.30;4.10;;;;;;;;;;6207232;28;20058;-61
2022/06/03 15:06:30;;;;;;;7.85;4.30;;;;;;;;;;6201334;28;20089;-65
2022/06/03 15:09:40;;;;;;;5.93;4.10;;;;;;;;;;6201044;28;20046;-61
2022/06/03 15:12:51;;;;;;;13.95;4.47;;;;;;;;;;6205937;28;21317;-61
2022/06/03 15:15:53;;;;;;;6.05;4.00;;;;;;;;;;6206800;28;20046;-60
2022/06/03 15:18:53;;;;;;;;;;;;;;;;;;6210176;28;20073;-62
2022/06/03 15:21:54;;;;;;;5.67;3.70;;;;;;;;;;6209956;28;20362;-61
2022/06/03 15:25:06;;;;;;;;;;;;;;;;;;6208770;28;20072;-61
2022/06/03 15:28:11;;;;;;;6.57;3.97;;;;;;;;;;6210213;28;19929;-60
2022/06/03 15:31:16;;;;;;;6.80;4.50;;;;;;;;;;6210320;28;20101;-60
2022/06/03 15:34:21;;;;;;;7.88;4.60;;;;;;;;;;6208937;28;20116;-61
2022/06/03 15:37:21;;;;;;;5.65;4.63;;;;;;;;;;6208949;28;20046;-62
2022/06/03 15:40:24;;;;;;;5.80;4.23;;;;;;;;;;6206755;28;20472;-62
2022/06/03 15:43:36;;;;;;;6.13;4.80;;;;;;;;;;6207854;28;20192;-61
2022/06/03 15:46:55;;;;;;;7.72;5.55;;;;;;;;;;6204088;28;20054;-61
2022/06/03 15:50:11;;;;;;;7.30;4.95;;;;;;;;;;6204784;28;20049;-61
2022/06/03 15:53:23;;;;;;;6.65;4.95;;;;;;;;;;6204744;28;20049;-62
2022/06/03 15:56:55;;;;;;;5.80;4.20;;;;;;;;;;6203708;28;20137;-62
2022/06/03 16:00:07;;;;;;;7.63;4.40;;;;;;;;;;6205310;28;20049;-60
2022/06/03 16:03:23;;;;;;;8.18;4.60;;;;;;;;;;6203241;28;20186;-60
2022/06/03 16:06:31;;;;;;;6.47;4.50;;;;;;;;;;6204225;28;20072;-61
2022/06/03 16:09:48;;;;;;;5.80;4.05;;;;;;;;;;6204418;28;20078;-61
2022/06/03 16:12:48;;;;;;;6.22;4.70;;;;;;;;;;6206180;28;20056;-60
2022/06/03 16:15:58;;;;;;;8.07;4.67;;;;;;;;;;6205019;28;20053;-61
2022/06/03 16:19:20;;;;;;;5.90;4.32;;;;;;;;;;6208631;28;20295;-60
2022/06/03 16:22:40;;;;;;;8.32;4.97;;;;;;;;;;6209169;28;20058;-60
2022/06/03 16:25:58;;;;;;;5.57;4.28;;;;;;;;;;6205086;28;20054;-61
2022/06/03 16:29:08;;;;;;;9.27;4.75;;;;;;;;;;6208396;28;20041;-61
2022/06/03 16:32:32;;;;;;;7.33;4.60;;;;;;;;;;6207718;28;20054;-62
2022/06/03 16:35:50;;;;;;;8.43;4.22;;;;;;;;;;6206378;28;20388;-61
2022/06/03 16:39:00;;;;;;;6.45;4.68;;;;;;;;;;6208601;28;20044;-62
2022/06/03 16:42:10;;;;;;;5.88;4.70;;;;;;;;;;6207701;28;20061;-62
2022/06/03 16:49:10;;;;;;;6.70;4.38;;;;;;;;;;6188276;28;20088;-61
2022/06/03 16:52:23;;;;;;;11.27;4.93;;;;;;;;;;6206118;28;20092;-61
2022/06/03 16:55:29;;;;;;;6.70;5.03;;;;;;;;;;6203687;28;20173;-61
2022/06/03 16:58:30;;;;;;;6.22;4.47;;;;;;;;;;6205922;28;20077;-61
2022/06/03 17:01:39;;;;;;;8.98;5.40;;;;;;;;;;6205370;28;20408;-61
2022/06/03 17:04:43;;;;;;;9.93;5.07;;;;;;;;;;6205569;28;20050;-61
2022/06/03 17:07:50;;;;;;;9.35;5.20;;;;;;;;;;6207243;28;20057;-61
2022/06/03 17:10:50;;;;;;;6.88;4.82;;;;;;;;;;6206496;28;20401;-61
2022/06/03 17:14:03;;;;;;;7.65;4.57;;;;;;;;;;6207944;28;20065;-61
2022/06/03 17:17:21;;;;;;;6.20;4.80;;;;;;;;;;6205112;28;20049;-61
2022/06/03 17:20:21;;;;;;;6.18;4.93;;;;;;;;;;6206269;28;20077;-61
2022/06/03 17:24:03;;;;;;;8.87;6.00;;;;;;;;;;6206680;28;20488;-61
2022/06/03 17:27:18;;;;;;;;;;;;;;;;;;6206198;28;20053;-59
2022/06/03 17:30:27;;;;;;;12.15;6.53;;;;;;;;;;6203907;28;20071;-61
2022/06/03 17:33:46;;;;;;;10.27;6.70;;;;;;;;;;6203719;28;20069;-60
2022/06/03 17:36:54;;;;;;;11.95;7.25;;;;;;;;;;6202676;28;20046;-60
2022/06/03 17:40:13;;;;;;;10.55;6.28;;;;;;;;;;6206382;28;20081;-60
2022/06/03 17:43:46;;;;;;;15.15;7.53;;;;;;;;;;6206246;28;20066;-59
2022/06/03 17:47:14;;;;;;;13.32;7.72;;;;;;;;;;6203522;28;20081;-60
2022/06/03 17:50:23;;;;;;;12.07;7.57;;;;;;;;;;6203990;28;20100;-59
2022/06/03 17:56:50;;;;;;;13.77;7.07;;;;;;;;;;6204048;28;20196;-59
2022/06/03 18:00:01;;;;;;;12.75;8.15;;;;;;;;;;6205812;28;20073;-59
2022/06/03 18:03:26;;;;;;;11.47;7.50;;;;;;;;;;6203109;28;20046;-60
2022/06/03 18:06:52;;;;;;;11.25;7.35;;;;;;;;;;6200313;28;20440;-59
2022/06/03 18:09:58;;;;;;;11.82;7.25;;;;;;;;;;6203597;28;20041;-64
2022/06/03 18:13:27;;;;;;;16.00;7.30;;;;;;;;;;6206264;28;20046;-60
2022/06/03 18:16:31;;;;;;;8.93;6.50;;;;;;;;;;6204452;28;20137;-60
2022/06/03 18:19:38;;;;;;;11.25;6.90;;;;;;;;;;6205961;28;20614;-61
2022/06/03 18:22:45;;;;;;;13.27;7.45;;;;;;;;;;6206525;28;20056;-61
2022/06/03 18:26:12;;;;;;;12.43;7.78;;;;;;;;;;6206141;28;20792;-61
2022/06/03 18:29:16;;;;;;;10.40;7.72;;;;;;;;;;6206079;28;20054;-61
2022/06/03 18:32:46;;;;;;;14.02;8.65;;;;;;;;;;6200192;28;20945;-60
2022/06/03 18:36:07;;;;;;;15.38;9.82;;;;;;;;;;6202281;28;20152;-60
2022/06/03 18:39:33;;;;;;;19.92;11.43;;;;;;;;;;6205100;28;20085;-60
2022/06/03 18:43:04;;;;;;;15.20;10.00;;;;;;;;;;6204830;28;20068;-60
2022/06/03 18:46:33;;;;;;;14.73;9.27;;;;;;;;;;6204180;28;20100;-60
2022/06/03 18:49:46;;;;;;;35.10;19.63;;;;;;;;;;6208328;28;20052;-59
2022/06/03 18:53:05;;;;;;;36.42;19.52;;;;;;;;;;6209748;28;20477;-59
2022/06/03 18:56:22;;;;;;;30.85;18.58;;;;;;;;;;6209997;28;20069;-60
2022/06/03 18:59:34;;;;;;;29.73;16.75;;;;;;;;;;6211292;28;20077;-60
2022/06/03 19:02:35;;;;;;;28.95;16.48;;;;;;;;;;6211503;28;20057;-59
2022/06/03 19:05:42;;;;;;;32.70;17.80;;;;;;;;;;6206725;28;20049;-59
2022/06/03 19:09:16;;;;;;;21.30;12.50;;;;;;;;;;6209048;28;20049;-60
2022/06/03 19:12:30;;;;;;;21.67;11.98;;;;;;;;;;6210228;28;20081;-60
2022/06/03 19:15:33;;;;;;;22.38;11.18;;;;;;;;;;6206477;28;20057;-60
2022/06/03 19:19:03;;;;;;;17.80;10.00;;;;;;;;;;6209756;28;20048;-60
2022/06/03 19:22:34;;;;;;;16.23;10.40;;;;;;;;;;6210845;28;20172;-60
2022/06/03 19:25:44;;;;;;;17.42;9.30;;;;;;;;;;6207814;28;20084;-60
2022/06/03 19:28:48;;;;;;;17.38;9.45;;;;;;;;;;6208809;28;20053;-59
2022/06/03 19:32:05;;;;;;;15.35;9.50;;;;;;;;;;6212248;28;20049;-59
2022/06/03 19:35:24;;;;;;;17.30;9.63;;;;;;;;;;6209042;28;20068;-65
2022/06/03 19:38:40;;;;;;;16.13;9.10;;;;;;;;;;6210007;28;20057;-63
2022/06/03 19:41:58;;;;;;;19.27;9.55;;;;;;;;;;6203769;28;20057;-63
2022/06/03 19:45:29;;;;;;;15.25;9.07;;;;;;;;;;6204266;28;20053;-62
2022/06/03 19:49:00;;;;;;;12.02;9.05;;;;;;;;;;6204139;28;20452;-61
2022/06/03 19:52:15;;;;;;;14.10;9.20;;;;;;;;;;6205286;28;20504;-61
2022/06/03 19:55:24;;;;;;;12.02;8.50;;;;;;;;;;6203682;28;20081;-62
2022/06/03 19:58:36;;;;;;;15.20;8.95;;;;;;;;;;6205838;28;20054;-61
2022/06/03 20:01:51;;;;;;;;;;;;;;;;;;6204871;28;20660;-61
2022/06/03 20:05:07;;;;;;;16.45;10.38;;;;;;;;;;6202653;28;19936;-61
2022/06/03 20:08:16;;;;;;;15.75;10.93;;;;;;;;;;6203000;28;20066;-61